Time;durP1;ratioP1;P1;durP2;ratioP2;P2;SDS_P1;SDS_P2;PMS_P1;PMS_P2;Temp;Humidity;BMP_temperature;BMP_pressure;BME280_temperature;BME280_humidity;BME280_pressure;Samples;Min_cycle;Max_cycle;Signal;HPM_P1;HPM_P2
2023/09/23 00:00:35;;;;;;;5.53;2.20;;;12.90;99.90;;;;;;4216067;28;20040;-82
2023/09/23 00:02:38;;;;;;;3.13;1.98;;;12.90;99.90;;;;;;4215984;28;20044;-82
2023/09/23 00:04:39;;;;;;;6.05;2.80;;;12.90;99.90;;;;;;4214731;28;20044;-82
2023/09/23 00:06:40;;;;;;;5.15;2.20;;;12.90;99.90;;;;;;4198482;28;20051;-82
2023/09/23 00:08:41;;;;;;;4.25;2.05;;;12.90;99.90;;;;;;4216134;28;20065;-82
2023/09/23 00:10:42;;;;;;;5.93;2.13;;;12.90;99.90;;;;;;4199366;28;20051;-82
2023/09/23 00:12:43;;;;;;;2.95;1.80;;;12.80;99.90;;;;;;4203414;28;20047;-81
2023/09/23 00:14:44;;;;;;;4.95;1.90;;;12.80;99.90;;;;;;4187415;28;20049;-82
2023/09/23 00:16:46;;;;;;;3.97;1.67;;;12.80;99.90;;;;;;4217071;28;20044;-83
2023/09/23 00:18:47;;;;;;;5.57;1.85;;;12.80;99.90;;;;;;4199238;28;20037;-82
2023/09/23 00:20:48;;;;;;;3.00;2.00;;;12.70;99.90;;;;;;4220133;28;20062;-82
2023/09/23 00:22:54;;;;;;;4.18;2.05;;;12.70;99.90;;;;;;4216005;28;20520;-82
2023/09/23 00:24:55;;;;;;;3.00;1.90;;;12.80;99.90;;;;;;4214761;28;20533;-82
2023/09/23 00:26:59;;;;;;;2.20;1.70;;;12.70;99.90;;;;;;4216250;28;20051;-82
2023/09/23 00:29:00;;;;;;;3.08;1.95;;;12.70;99.90;;;;;;4214956;28;20137;-82
2023/09/23 00:31:11;;;;;;;3.08;1.83;;;12.70;99.90;;;;;;4197802;28;20048;-82
2023/09/23 00:33:16;;;;;;;3.05;1.67;;;12.70;99.90;;;;;;4197665;28;20096;-82
2023/09/23 00:35:18;;;;;;;4.43;1.60;;;12.70;99.90;;;;;;4216241;28;20502;-82
2023/09/23 00:37:19;;;;;;;3.25;1.63;;;12.70;99.90;;;;;;4215902;28;20044;-82
2023/09/23 00:39:20;;;;;;;4.80;1.60;;;12.70;99.90;;;;;;4215355;28;20043;-82
2023/09/23 00:41:21;;;;;;;3.08;1.30;;;12.70;99.90;;;;;;4216014;28;20552;-82
2023/09/23 00:43:23;;;;;;;2.15;1.23;;;12.60;99.90;;;;;;4215516;28;20105;-82
2023/09/23 00:45:29;;;;;;;3.92;1.35;;;12.70;99.90;;;;;;4215893;28;20558;-82
2023/09/23 00:47:31;;;;;;;2.25;1.10;;;12.60;99.90;;;;;;4215728;28;20492;-82
2023/09/23 00:49:33;;;;;;;1.02;0.80;;;12.70;99.90;;;;;;4216241;28;20054;-82
2023/09/23 00:51:34;;;;;;;2.47;1.10;;;12.60;99.90;;;;;;4180844;28;20473;-82
2023/09/23 00:53:39;;;;;;;2.38;1.38;;;12.60;99.90;;;;;;4196872;28;20080;-82
2023/09/23 00:55:43;;;;;;;2.83;1.10;;;12.60;99.90;;;;;;4197099;28;20040;-82
2023/09/23 00:57:46;;;;;;;1.95;1.20;;;12.50;99.90;;;;;;4215634;28;20499;-82
2023/09/23 00:59:47;;;;;;;2.70;1.23;;;12.50;99.90;;;;;;4197102;28;20505;-82
2023/09/23 01:01:53;;;;;;;2.70;1.10;;;12.50;99.90;;;;;;4197098;28;20040;-81
2023/09/23 01:03:53;;;;;;;3.67;1.38;;;12.50;99.90;;;;;;4197042;28;20492;-81
2023/09/23 01:06:06;;;;;;;5.10;1.25;;;12.40;99.90;;;;;;4215309;28;20048;-81
2023/09/23 01:08:20;;;;;;;2.30;1.10;;;12.50;99.90;;;;;;4214530;28;20081;-81
2023/09/23 01:10:21;;;;;;;2.15;1.17;;;12.40;99.90;;;;;;4211117;28;20109;-81
2023/09/23 01:12:22;;;;;;;2.28;0.80;;;12.40;99.90;;;;;;4196772;28;20507;-81
2023/09/23 01:14:22;;;;;;;2.65;0.88;;;12.40;99.90;;;;;;4231671;28;20043;-81
2023/09/23 01:16:24;;;;;;;2.22;1.35;;;12.40;99.90;;;;;;4230488;28;20047;-81
2023/09/23 01:18:28;;;;;;;2.13;0.82;;;12.30;99.90;;;;;;4213735;28;20087;-81
2023/09/23 01:20:30;;;;;;;1.23;0.60;;;12.30;99.90;;;;;;4230184;28;20053;-81
2023/09/23 01:22:34;;;;;;;2.05;0.93;;;12.30;99.90;;;;;;4231648;28;20040;-81
2023/09/23 01:24:35;;;;;;;2.17;0.80;;;12.30;99.90;;;;;;4231418;28;20039;-81
2023/09/23 01:26:36;;;;;;;1.45;0.57;;;12.30;99.90;;;;;;4231346;28;20036;-81
2023/09/23 01:28:37;;;;;;;2.85;0.73;;;12.30;99.90;;;;;;4194600;28;20056;-81
2023/09/23 01:30:40;;;;;;;1.45;0.80;;;12.30;99.90;;;;;;4230064;28;20093;-81
2023/09/23 01:32:52;;;;;;;1.38;0.63;;;12.30;99.90;;;;;;4231323;28;20389;-82
2023/09/23 01:34:52;;;;;;;0.80;0.60;;;12.30;99.90;;;;;;4231244;28;20380;-81
2023/09/23 01:36:53;;;;;;;1.48;0.80;;;12.30;99.90;;;;;;4231312;28;20039;-81
2023/09/23 01:38:54;;;;;;;1.35;0.55;;;12.30;99.90;;;;;;4231323;28;20039;-81
2023/09/23 01:40:55;;;;;;;3.47;1.63;;;12.20;99.90;;;;;;4232418;28;20044;-81
2023/09/23 01:42:57;;;;;;;1.88;1.17;;;12.30;99.90;;;;;;4219789;28;20051;-81
2023/09/23 01:44:59;;;;;;;3.25;1.10;;;12.30;99.90;;;;;;4222128;28;20048;-81
2023/09/23 01:46:59;;;;;;;1.77;1.42;;;12.20;99.90;;;;;;4215275;28;20511;-81
2023/09/23 01:49:01;;;;;;;3.13;0.70;;;12.20;99.90;;;;;;4215045;28;20039;-82
2023/09/23 01:51:02;;;;;;;6.18;0.98;;;12.20;99.90;;;;;;4214977;28;20060;-81
2023/09/23 01:53:04;;;;;;;6.47;1.58;;;12.20;99.90;;;;;;4214921;28;20052;-81
2023/09/23 01:55:05;;;;;;;3.08;0.73;;;12.20;99.90;;;;;;4214329;28;20078;-81
2023/09/23 01:57:06;;;;;;;2.38;0.75;;;12.20;99.90;;;;;;4179937;28;20044;-81
2023/09/23 01:59:07;;;;;;;2.35;0.68;;;12.10;99.90;;;;;;4214578;28;20488;-81
2023/09/23 02:01:08;;;;;;;3.45;0.90;;;12.10;99.90;;;;;;4214451;28;20036;-81
2023/09/23 02:03:09;;;;;;;2.30;0.60;;;12.10;99.90;;;;;;4213973;28;20113;-81
2023/09/23 02:05:09;;;;;;;2.55;0.50;;;12.10;99.90;;;;;;4179788;28;20063;-81
2023/09/23 02:07:11;;;;;;;2.90;0.70;;;12.00;99.90;;;;;;4196299;28;20496;-81
2023/09/23 02:09:12;;;;;;;0.88;0.47;;;12.00;99.90;;;;;;4214227;28;20072;-80
2023/09/23 02:11:12;;;;;;;1.45;0.60;;;12.00;99.90;;;;;;4214326;28;20481;-81
2023/09/23 02:13:13;;;;;;;0.90;0.52;;;12.00;99.90;;;;;;4214365;28;20465;-81
2023/09/23 02:15:17;;;;;;;1.05;0.63;;;12.00;99.90;;;;;;4214090;28;20119;-81
2023/09/23 02:17:20;;;;;;;0.80;0.50;;;12.00;99.90;;;;;;4196202;28;20056;-81
2023/09/23 02:19:20;;;;;;;1.27;0.60;;;12.00;99.90;;;;;;4214040;28;20044;-81
2023/09/23 02:21:21;;;;;;;2.67;0.65;;;12.00;99.90;;;;;;4214074;28;20098;-81
2023/09/23 02:23:22;;;;;;;1.92;0.57;;;12.00;99.90;;;;;;4214192;28;20040;-81
2023/09/23 02:25:27;;;;;;;1.38;0.50;;;12.00;99.90;;;;;;4179493;28;20041;-81
2023/09/23 02:27:27;;;;;;;2.55;0.68;;;12.00;99.90;;;;;;4195486;28;20040;-81
2023/09/23 02:29:29;;;;;;;1.92;1.10;;;12.00;99.90;;;;;;4196202;28;20400;-81
2023/09/23 02:31:31;;;;;;;1.95;0.82;;;11.90;99.90;;;;;;4212713;28;20055;-81
2023/09/23 02:33:32;;;;;;;1.00;0.70;;;12.00;99.90;;;;;;4196086;28;20556;-81
2023/09/23 02:35:33;;;;;;;3.22;0.95;;;12.00;99.90;;;;;;4224421;28;20043;-81
2023/09/23 02:37:35;;;;;;;1.73;0.80;;;11.90;99.90;;;;;;4212617;28;20389;-81
2023/09/23 02:39:35;;;;;;;1.92;1.00;;;11.90;99.90;;;;;;4231144;28;20047;-81
2023/09/23 02:41:36;;;;;;;1.85;1.13;;;11.90;99.90;;;;;;4230909;28;20048;-81
2023/09/23 02:43:37;;;;;;;3.65;1.23;;;11.90;99.90;;;;;;4195687;28;20059;-81
2023/09/23 02:45:38;;;;;;;3.08;1.45;;;11.90;99.90;;;;;;4230814;28;20082;-81
2023/09/23 02:47:40;;;;;;;4.82;1.77;;;11.90;99.90;;;;;;4230660;28;20058;-81
2023/09/23 02:49:42;;;;;;;2.85;1.42;;;11.90;99.90;;;;;;4230570;28;20039;-81
2023/09/23 02:51:44;;;;;;;2.58;1.60;;;11.90;99.90;;;;;;4230873;28;20040;-81
2023/09/23 02:53:45;;;;;;;4.18;1.55;;;11.90;99.90;;;;;;4217223;28;20038;-81
2023/09/23 02:55:51;;;;;;;3.08;2.22;;;11.90;99.90;;;;;;4212675;28;20116;-81
2023/09/23 02:57:55;;;;;;;7.68;2.45;;;11.90;99.90;;;;;;4182695;28;20044;-81
2023/09/23 02:59:57;;;;;;;4.35;2.33;;;11.90;99.90;;;;;;4217457;28;20433;-82
2023/09/23 03:02:00;;;;;;;4.03;2.42;;;11.90;99.90;;;;;;4199130;28;20053;-82
2023/09/23 03:04:07;;;;;;;5.78;2.50;;;11.90;99.90;;;;;;4199296;28;20076;-82
2023/09/23 03:06:08;;;;;;;4.00;2.80;;;11.90;99.90;;;;;;4198995;28;20040;-82
2023/09/23 03:08:13;;;;;;;7.78;3.15;;;11.90;99.90;;;;;;4199254;28;20045;-82
2023/09/23 03:10:19;;;;;;;5.25;3.28;;;11.90;99.90;;;;;;4216566;28;20077;-82
2023/09/23 03:12:19;;;;;;;5.45;2.85;;;11.90;99.90;;;;;;4183150;28;20041;-82
2023/09/23 03:14:23;;;;;;;4.47;3.15;;;11.90;99.90;;;;;;4216601;28;20040;-82
2023/09/23 03:16:30;;;;;;;5.35;3.28;;;11.90;99.90;;;;;;4216824;28;20040;-82
2023/09/23 03:18:34;;;;;;;6.80;3.78;;;11.80;99.90;;;;;;4198729;28;20128;-82
2023/09/23 03:20:36;;;;;;;5.43;3.78;;;11.90;99.90;;;;;;4182343;28;20048;-81
2023/09/23 03:22:37;;;;;;;4.63;2.97;;;11.90;99.90;;;;;;4217071;28;20051;-82
2023/09/23 03:24:38;;;;;;;8.02;3.85;;;11.70;99.90;;;;;;4182024;28;20049;-82
2023/09/23 03:26:46;;;;;;;5.38;3.40;;;11.80;99.90;;;;;;4216438;28;20539;-82
2023/09/23 03:28:47;;;;;;;5.75;3.70;;;11.80;99.90;;;;;;4198614;28;20052;-82
2023/09/23 03:30:49;;;;;;;5.38;3.28;;;11.80;99.90;;;;;;4198772;28;20064;-82
2023/09/23 03:32:49;;;;;;;8.25;4.03;;;11.80;99.90;;;;;;4216827;28;20044;-82
2023/09/23 03:34:50;;;;;;;5.82;3.92;;;11.80;99.90;;;;;;4216193;28;20046;-81
2023/09/23 03:36:53;;;;;;;6.55;3.67;;;11.80;99.90;;;;;;4215235;28;20110;-81
2023/09/23 03:38:53;;;;;;;10.77;4.47;;;12.00;99.90;;;;;;4216574;28;20046;-81
2023/09/23 03:40:59;;;;;;;6.88;3.40;;;11.70;99.90;;;;;;4198353;28;20131;-81
2023/09/23 03:43:01;;;;;;;6.85;3.90;;;11.80;99.90;;;;;;4198189;28;20178;-82
2023/09/23 03:45:03;;;;;;;7.90;4.32;;;11.80;99.90;;;;;;4216173;28;20597;-82
2023/09/23 03:47:04;;;;;;;8.82;4.20;;;11.70;99.90;;;;;;4216109;28;20052;-82
2023/09/23 03:49:04;;;;;;;7.43;4.32;;;11.70;99.90;;;;;;4216073;28;20488;-82
2023/09/23 03:51:09;;;;;;;6.82;4.25;;;11.70;99.90;;;;;;4216393;28;20050;-81
2023/09/23 03:53:11;;;;;;;5.63;3.70;;;11.70;99.90;;;;;;4216551;28;20048;-82
2023/09/23 03:55:13;;;;;;;7.80;4.32;;;11.60;99.90;;;;;;4198106;28;20053;-81
2023/09/23 03:57:14;;;;;;;7.35;4.43;;;11.60;99.90;;;;;;4198223;28;20115;-82
2023/09/23 03:59:14;;;;;;;7.93;4.28;;;11.60;99.90;;;;;;4215989;28;20093;-82
2023/09/23 04:01:15;;;;;;;8.98;3.90;;;11.60;99.90;;;;;;4217422;27;20408;-82
2023/09/23 04:03:17;;;;;;;7.28;3.97;;;11.60;99.90;;;;;;4214495;28;20132;-82
2023/09/23 04:05:20;;;;;;;9.63;3.60;;;11.60;99.90;;;;;;4216232;28;20127;-82
2023/09/23 04:07:21;;;;;;;6.13;4.18;;;11.60;99.90;;;;;;4215648;28;20523;-82
2023/09/23 04:09:23;;;;;;;7.05;4.30;;;11.60;99.90;;;;;;4214507;28;20052;-82
2023/09/23 04:11:23;;;;;;;7.85;4.45;;;11.50;99.90;;;;;;4214913;28;20558;-82
2023/09/23 04:13:25;;;;;;;6.88;4.18;;;11.50;99.90;;;;;;4198231;28;20044;-82
2023/09/23 04:15:26;;;;;;;6.50;4.55;;;11.50;99.90;;;;;;4214547;28;20047;-82
2023/09/23 04:17:27;;;;;;;7.15;4.10;;;11.30;99.90;;;;;;4189687;28;20052;-82
2023/09/23 04:19:29;;;;;;;7.63;4.13;;;11.50;99.90;;;;;;4215805;28;20507;-82
2023/09/23 04:21:31;;;;;;;10.00;4.47;;;11.50;99.90;;;;;;4197868;28;20056;-82
2023/09/23 04:23:32;;;;;;;6.78;4.65;;;11.50;99.90;;;;;;4215848;28;20799;-82
2023/09/23 04:25:33;;;;;;;7.88;4.97;;;11.50;99.90;;;;;;4215472;28;20052;-82
2023/09/23 04:27:34;;;;;;;8.38;4.95;;;11.50;99.90;;;;;;4197907;28;20040;-82
2023/09/23 04:29:34;;;;;;;8.23;4.40;;;11.50;99.90;;;;;;4188719;28;20493;-82
2023/09/23 04:31:35;;;;;;;7.60;4.00;;;11.50;99.90;;;;;;4214075;28;20039;-82
2023/09/23 04:33:36;;;;;;;8.60;4.88;;;11.50;99.90;;;;;;4231897;28;20050;-82
2023/09/23 04:35:37;;;;;;;9.40;4.85;;;11.50;99.90;;;;;;4213832;28;20066;-82
2023/09/23 04:37:37;;;;;;;6.50;4.43;;;11.50;99.90;;;;;;4232348;28;20122;-82
2023/09/23 04:39:38;;;;;;;7.47;4.78;;;11.50;99.90;;;;;;4231016;28;20055;-82
2023/09/23 04:41:40;;;;;;;6.97;4.40;;;11.50;99.90;;;;;;4214267;28;20476;-82
2023/09/23 04:43:42;;;;;;;8.57;5.20;;;11.50;99.90;;;;;;4232496;28;20066;-82
2023/09/23 04:45:43;;;;;;;7.28;4.50;;;11.50;99.90;;;;;;4231415;28;20075;-82
2023/09/23 04:47:47;;;;;;;9.18;5.03;;;11.50;99.90;;;;;;4214159;28;20059;-82
2023/09/23 04:49:48;;;;;;;7.72;4.70;;;11.50;99.90;;;;;;4250857;28;20050;-81
2023/09/23 04:51:49;;;;;;;9.52;4.80;;;11.50;99.90;;;;;;4251847;28;20043;-82
2023/09/23 04:53:50;;;;;;;8.25;4.65;;;11.50;99.90;;;;;;4232348;28;20043;-82
2023/09/23 04:55:51;;;;;;;7.10;4.10;;;11.50;99.90;;;;;;4232066;28;20115;-82
2023/09/23 04:57:51;;;;;;;8.40;3.83;;;11.50;99.90;;;;;;4232047;28;20036;-82
2023/09/23 04:59:52;;;;;;;7.28;4.00;;;11.50;99.90;;;;;;4232299;28;20039;-83
2023/09/23 05:01:53;;;;;;;6.70;4.10;;;11.50;99.90;;;;;;4217994;28;20123;-82
2023/09/23 05:03:55;;;;;;;5.50;3.83;;;11.50;99.90;;;;;;4179910;28;20057;-83
2023/09/23 05:05:56;;;;;;;5.68;3.80;;;11.50;99.90;;;;;;4196888;28;20434;-82
2023/09/23 05:07:57;;;;;;;6.15;3.75;;;11.50;99.90;;;;;;4197163;28;20083;-82
2023/09/23 05:09:57;;;;;;;7.65;3.90;;;11.50;99.90;;;;;;4215107;28;20408;-82
2023/09/23 05:12:00;;;;;;;6.70;3.20;;;11.50;99.90;;;;;;4214936;28;20040;-82
2023/09/23 05:14:04;;;;;;;7.35;3.92;;;11.50;99.90;;;;;;4215019;28;20043;-82
2023/09/23 05:16:05;;;;;;;7.70;4.07;;;11.50;99.90;;;;;;4180513;28;20052;-83
2023/09/23 05:18:08;;;;;;;7.15;4.63;;;11.40;99.90;;;;;;4214874;28;20473;-82
2023/09/23 05:20:15;;;;;;;7.80;3.60;;;11.40;99.90;;;;;;4195753;28;20052;-82
2023/09/23 05:22:16;;;;;;;5.43;3.67;;;11.40;99.90;;;;;;4180031;28;20041;-81
2023/09/23 05:24:17;;;;;;;7.47;3.40;;;11.40;99.90;;;;;;4214492;28;20064;-81
2023/09/23 05:26:19;;;;;;;6.35;3.58;;;11.40;99.90;;;;;;4216650;28;20039;-81
2023/09/23 05:28:19;;;;;;;5.63;3.72;;;11.40;99.90;;;;;;4231134;28;20043;-81
2023/09/23 05:30:21;;;;;;;10.10;4.07;;;11.30;99.90;;;;;;4231066;28;20119;-81
2023/09/23 05:32:22;;;;;;;6.35;4.10;;;11.40;99.90;;;;;;4231047;28;20070;-81
2023/09/23 05:34:23;;;;;;;6.10;3.65;;;11.30;99.90;;;;;;4196640;28;20048;-81
2023/09/23 05:36:25;;;;;;;7.47;3.40;;;11.30;99.90;;;;;;4231253;28;20096;-81
2023/09/23 05:38:26;;;;;;;4.63;3.80;;;11.30;99.90;;;;;;4229947;28;20079;-81
2023/09/23 05:40:29;;;;;;;8.23;3.65;;;11.80;99.90;;;;;;4231636;28;20414;-81
2023/09/23 05:42:31;;;;;;;8.07;3.90;;;;;;;;;;4231188;28;20044;-81
2023/09/23 05:44:32;;;;;;;6.50;3.53;;;11.30;99.90;;;;;;4213327;28;20081;-80
2023/09/23 05:46:34;;;;;;;6.25;3.28;;;11.20;99.90;;;;;;4231475;28;20122;-81
2023/09/23 05:48:35;;;;;;;5.70;3.28;;;11.30;99.90;;;;;;4214294;28;20039;-81
2023/09/23 05:50:36;;;;;;;7.03;4.55;;;11.20;99.90;;;;;;4197295;28;20083;-81
2023/09/23 05:52:37;;;;;;;6.25;3.45;;;11.20;99.90;;;;;;4212720;28;20448;-81
2023/09/23 05:54:38;;;;;;;7.28;3.72;;;11.20;99.90;;;;;;4231653;28;20392;-81
2023/09/23 05:56:39;;;;;;;6.60;4.03;;;11.20;99.90;;;;;;4214752;28;20044;-81
2023/09/23 05:58:39;;;;;;;6.20;3.90;;;11.20;99.90;;;;;;4213866;28;20396;-81
2023/09/23 06:00:40;;;;;;;7.13;4.00;;;11.20;99.90;;;;;;4231747;28;20036;-81
2023/09/23 06:02:41;;;;;;;6.82;4.90;;;11.20;99.90;;;;;;4213487;28;20052;-81
2023/09/23 06:04:42;;;;;;;8.30;4.45;;;11.20;99.90;;;;;;4230520;28;20136;-81
2023/09/23 06:06:43;;;;;;;8.57;4.70;;;11.30;99.90;;;;;;4232039;28;20039;-81
2023/09/23 06:08:47;;;;;;;8.30;4.45;;;11.20;99.90;;;;;;4226329;28;20059;-80
2023/09/23 06:10:48;;;;;;;7.10;4.30;;;11.20;99.90;;;;;;4230965;28;20048;-81
2023/09/23 06:12:50;;;;;;;10.43;4.82;;;11.20;99.90;;;;;;4216746;28;20052;-81
2023/09/23 06:14:54;;;;;;;8.20;4.45;;;11.30;99.90;;;;;;4213091;28;20047;-81
2023/09/23 06:16:54;;;;;;;11.20;4.22;;;11.20;99.90;;;;;;4213009;28;20060;-81
2023/09/23 06:18:55;;;;;;;8.88;4.80;;;11.30;99.90;;;;;;4195401;28;20473;-81
2023/09/23 06:21:04;;;;;;;7.88;5.28;;;11.30;99.90;;;;;;4196658;28;20139;-81
2023/09/23 06:23:05;;;;;;;10.23;5.40;;;11.30;99.90;;;;;;4213769;28;20045;-81
2023/09/23 06:25:06;;;;;;;7.80;4.82;;;11.30;99.90;;;;;;4210013;28;20044;-81
2023/09/23 06:27:06;;;;;;;7.20;5.55;;;11.10;99.90;;;;;;4219934;28;20504;-81
2023/09/23 06:29:09;;;;;;;11.10;6.72;;;11.40;99.90;;;;;;4214760;28;20052;-81
2023/09/23 06:31:10;;;;;;;9.40;5.57;;;11.40;99.90;;;;;;4230221;28;20043;-81
2023/09/23 06:33:10;;;;;;;12.25;5.85;;;11.40;99.90;;;;;;4199638;28;20052;-81
2023/09/23 06:35:11;;;;;;;11.70;6.05;;;11.40;99.90;;;;;;4234522;28;20036;-81
2023/09/23 06:37:13;;;;;;;9.52;6.22;;;11.50;99.90;;;;;;4216393;28;20054;-81
2023/09/23 06:39:14;;;;;;;10.07;6.20;;;11.50;99.90;;;;;;4215671;28;20048;-81
2023/09/23 06:41:15;;;;;;;10.05;6.55;;;11.50;99.90;;;;;;4216083;28;20051;-81
2023/09/23 06:43:16;;;;;;;11.32;6.47;;;11.60;99.90;;;;;;4216134;28;20050;-81
2023/09/23 06:45:18;;;;;;;11.02;6.70;;;11.60;99.90;;;;;;4234283;28;20043;-81
2023/09/23 06:47:20;;;;;;;14.80;7.20;;;11.60;99.90;;;;;;4234246;28;20110;-81
2023/09/23 06:49:20;;;;;;;10.60;6.68;;;11.60;99.90;;;;;;4234243;28;20429;-81
2023/09/23 06:51:21;;;;;;;13.88;7.32;;;11.70;99.90;;;;;;4215369;28;20126;-81
2023/09/23 06:53:23;;;;;;;12.75;6.05;;;11.80;99.90;;;;;;4217295;28;20051;-81
2023/09/23 06:55:25;;;;;;;15.98;8.30;;;11.80;99.90;;;;;;4232617;28;20104;-81
2023/09/23 06:57:26;;;;;;;14.98;7.60;;;11.90;99.90;;;;;;4199140;28;20045;-81
2023/09/23 06:59:26;;;;;;;14.48;7.90;;;12.00;99.90;;;;;;4215809;28;20044;-81
2023/09/23 07:01:27;;;;;;;15.27;7.97;;;12.00;99.90;;;;;;4198140;28;20557;-81
2023/09/23 07:03:28;;;;;;;12.95;7.93;;;12.10;99.90;;;;;;4200100;28;20123;-81
2023/09/23 07:05:29;;;;;;;16.70;8.20;;;12.20;99.90;;;;;;4199711;28;20040;-82
2023/09/23 07:07:30;;;;;;;13.38;8.20;;;12.20;99.90;;;;;;4199815;28;20048;-80
2023/09/23 07:09:31;;;;;;;14.18;8.27;;;12.20;99.90;;;;;;4199993;28;20552;-81
2023/09/23 07:11:32;;;;;;;33.17;8.73;;;12.20;99.90;;;;;;4200140;28;20044;-81
2023/09/23 07:13:32;;;;;;;15.65;8.38;;;12.30;99.90;;;;;;4198737;28;20052;-81
2023/09/23 07:15:37;;;;;;;14.93;8.38;;;12.30;99.90;;;;;;4199826;28;20094;-81
2023/09/23 07:17:38;;;;;;;15.50;7.70;;;12.30;99.90;;;;;;4199923;28;20119;-81
2023/09/23 07:19:39;;;;;;;13.55;7.95;;;12.30;99.90;;;;;;4199461;28;20396;-81
2023/09/23 07:21:40;;;;;;;18.20;9.77;;;12.30;99.90;;;;;;4215534;28;20048;-81
2023/09/23 07:23:40;;;;;;;15.75;8.68;;;12.30;99.90;;;;;;4200168;28;20048;-81
2023/09/23 07:25:42;;;;;;;14.95;8.52;;;12.40;99.90;;;;;;4200197;28;20467;-80
2023/09/23 07:27:42;;;;;;;14.85;8.18;;;12.40;99.90;;;;;;4204541;28;20810;-80
2023/09/23 07:29:46;;;;;;;13.82;8.07;;;12.40;99.90;;;;;;4216380;28;20040;-80
2023/09/23 07:31:47;;;;;;;14.13;8.27;;;12.40;99.90;;;;;;4198513;28;20063;-79
2023/09/23 07:33:47;;;;;;;17.02;9.00;;;12.50;99.90;;;;;;4213777;28;20569;-80
2023/09/23 07:35:48;;;;;;;14.40;8.20;;;12.50;99.90;;;;;;4190618;28;20044;-80
2023/09/23 07:37:49;;;;;;;13.60;7.82;;;12.60;99.90;;;;;;4216199;28;20444;-79
2023/09/23 07:39:50;;;;;;;13.00;8.10;;;12.60;99.90;;;;;;4216245;28;20036;-79
2023/09/23 07:41:51;;;;;;;15.45;7.80;;;12.70;99.90;;;;;;4216219;28;20531;-79
2023/09/23 07:43:52;;;;;;;13.77;8.05;;;12.70;99.90;;;;;;4214716;28;20044;-79
2023/09/23 07:45:54;;;;;;;14.10;8.10;;;12.70;99.90;;;;;;4210662;28;20079;-80
2023/09/23 07:47:54;;;;;;;13.95;8.35;;;12.70;99.90;;;;;;4199473;28;20059;-80
2023/09/23 07:49:55;;;;;;;15.85;8.20;;;12.80;99.90;;;;;;4202214;28;20052;-82
2023/09/23 07:52:02;;;;;;;14.68;7.70;;;12.00;99.90;;;;;;4216034;28;20032;-79
2023/09/23 07:54:03;;;;;;;12.43;7.93;;;13.00;99.90;;;;;;4226859;28;20519;-81
2023/09/23 07:56:04;;;;;;;11.55;6.82;;;13.30;99.90;;;;;;4231630;28;20047;-80
2023/09/23 07:58:05;;;;;;;17.40;7.88;;;14.10;99.90;;;;;;4231800;28;20400;-80
2023/09/23 08:00:09;;;;;;;12.23;7.28;;;14.70;99.90;;;;;;4213627;28;20040;-80
2023/09/23 08:02:10;;;;;;;11.35;7.60;;;15.20;99.90;;;;;;4232041;28;20131;-82
2023/09/23 08:04:12;;;;;;;10.13;6.60;;;15.70;99.90;;;;;;4232239;28;20047;-82
2023/09/23 08:06:12;;;;;;;13.70;6.65;;;16.40;99.90;;;;;;4233640;28;20051;-80
2023/09/23 08:08:13;;;;;;;10.88;6.28;;;16.70;99.90;;;;;;4214606;28;20052;-80
2023/09/23 08:10:15;;;;;;;10.65;5.80;;;16.40;99.90;;;;;;4232771;28;20044;-81
2023/09/23 08:12:16;;;;;;;10.23;6.10;;;16.30;99.90;;;;;;4232828;28;20035;-82
2023/09/23 08:14:17;;;;;;;10.30;5.95;;;16.40;99.90;;;;;;4214475;28;20120;-82
2023/09/23 08:16:18;;;;;;;10.27;5.82;;;16.30;99.90;;;;;;4232171;28;20122;-80
2023/09/23 08:18:18;;;;;;;12.00;6.10;;;15.90;99.90;;;;;;4214553;28;20052;-80
2023/09/23 08:20:21;;;;;;;10.13;6.72;;;15.50;99.90;;;;;;4199958;28;20048;-80
2023/09/23 08:22:22;;;;;;;10.48;6.47;;;15.30;99.90;;;;;;4215715;28;20051;-80
2023/09/23 08:24:23;;;;;;;11.00;6.95;;;15.10;99.90;;;;;;4221244;28;20535;-82
2023/09/23 08:26:24;;;;;;;9.38;5.88;;;14.90;99.90;;;;;;4197136;28;20048;-81
2023/09/23 08:28:25;;;;;;;10.70;6.35;;;14.70;99.90;;;;;;4233213;28;20050;-80
2023/09/23 08:30:26;;;;;;;13.50;6.57;;;14.60;99.90;;;;;;4226971;28;20044;-81
2023/09/23 08:32:26;;;;;;;10.07;6.10;;;14.40;99.90;;;;;;4223008;28;20568;-80
2023/09/23 08:34:27;;;;;;;14.10;6.88;;;14.40;99.90;;;;;;4232522;28;20051;-82
2023/09/23 08:36:29;;;;;;;10.75;5.78;;;14.60;99.90;;;;;;4232033;28;20484;-81
2023/09/23 08:38:31;;;;;;;10.18;6.55;;;15.00;99.90;;;;;;4214075;28;20495;-81
2023/09/23 08:40:38;;;;;;;10.82;6.25;;;15.60;99.90;;;;;;4232326;28;20065;-81
2023/09/23 08:42:39;;;;;;;14.30;5.90;;;15.60;99.90;;;;;;4214083;28;20109;-80
2023/09/23 08:44:42;;;;;;;10.57;5.60;;;15.40;99.90;;;;;;4213823;28;20051;-80
2023/09/23 08:46:45;;;;;;;11.50;5.82;;;15.30;99.90;;;;;;4231906;28;20044;-80
2023/09/23 08:48:46;;;;;;;11.10;5.50;;;15.60;99.90;;;;;;4232078;28;20078;-80
2023/09/23 08:50:51;;;;;;;10.73;5.22;;;16.20;99.90;;;;;;4230451;28;20051;-81
2023/09/23 08:52:52;;;;;;;8.65;4.22;;;16.80;99.90;;;;;;4212840;28;20065;-81
2023/09/23 08:54:55;;;;;;;7.43;4.53;;;17.50;99.90;;;;;;4230117;28;20096;-80
2023/09/23 08:56:57;;;;;;;6.50;3.95;;;18.10;99.90;;;;;;4212184;28;20113;-81
2023/09/23 08:58:58;;;;;;;7.53;4.10;;;18.40;99.90;;;;;;4212188;28;20058;-81
2023/09/23 09:01:01;;;;;;;5.95;3.20;;;18.80;99.90;;;;;;4230307;28;20487;-81
2023/09/23 09:03:02;;;;;;;7.57;3.92;;;19.10;99.90;;;;;;4230878;28;20130;-81
2023/09/23 09:05:03;;;;;;;11.13;3.90;;;19.30;99.90;;;;;;4230043;28;20039;-81
2023/09/23 09:07:05;;;;;;;6.15;3.25;;;19.10;99.90;;;;;;4231856;28;20050;-81
2023/09/23 09:09:07;;;;;;;4.93;2.97;;;19.20;99.90;;;;;;4232148;28;20047;-81
2023/09/23 09:11:09;;;;;;;4.82;3.15;;;19.70;99.90;;;;;;4213987;28;20040;-81
2023/09/23 09:13:10;;;;;;;7.10;3.20;;;20.30;99.90;;;;;;4213797;28;20035;-80
2023/09/23 09:15:10;;;;;;;5.05;2.95;;;20.60;99.90;;;;;;4231000;28;20089;-81
2023/09/23 09:17:12;;;;;;;4.65;2.58;;;21.10;99.90;;;;;;4231599;28;20495;-81
2023/09/23 09:19:13;;;;;;;6.95;2.50;;;21.50;99.90;;;;;;4231610;28;20054;-81
2023/09/23 09:21:14;;;;;;;4.32;2.22;;;21.60;99.90;;;;;;4231386;28;20083;-81
2023/09/23 09:23:16;;;;;;;8.10;1.90;;;21.50;99.90;;;;;;4231193;28;20399;-80
2023/09/23 09:25:20;;;;;;;4.72;2.63;;;21.60;99.90;;;;;;4231658;28;20043;-81
2023/09/23 09:27:22;;;;;;;6.13;3.25;;;21.50;99.90;;;;;;4230911;28;20043;-81
2023/09/23 09:29:24;;;;;;;5.78;2.40;;;21.30;99.90;;;;;;4231643;28;20495;-81
2023/09/23 09:31:33;;;;;;;4.22;2.22;;;21.40;99.90;;;;;;4213428;28;20051;-81
2023/09/23 09:33:36;;;;;;;4.47;2.30;;;21.10;99.90;;;;;;4213353;28;20087;-81
2023/09/23 09:35:39;;;;;;;3.38;2.08;;;20.60;99.90;;;;;;4231443;28;20055;-81
2023/09/23 09:37:44;;;;;;;6.38;3.28;;;20.20;99.90;;;;;;4231570;28;20472;-81
2023/09/23 09:39:55;;;;;;;2.67;2.10;;;20.10;99.90;;;;;;4231610;28;20052;-81
2023/09/23 09:41:58;;;;;;;4.85;2.63;;;20.20;99.90;;;;;;4213601;28;20576;-81
2023/09/23 09:44:02;;;;;;;4.00;2.00;;;20.60;99.90;;;;;;4212994;28;20043;-81
2023/09/23 09:46:08;;;;;;;3.25;1.88;;;20.80;99.90;;;;;;4231237;28;20043;-81
2023/09/23 09:48:10;;;;;;;3.88;1.98;;;20.70;99.90;;;;;;4231060;28;20047;-81
2023/09/23 09:50:14;;;;;;;4.05;1.98;;;20.60;99.90;;;;;;4231272;28;20610;-81
2023/09/23 09:52:15;;;;;;;5.30;1.60;;;20.60;99.90;;;;;;4231018;28;20052;-81
2023/09/23 09:54:19;;;;;;;4.63;1.65;;;20.50;99.90;;;;;;4230856;28;20035;-81
2023/09/23 09:56:21;;;;;;;3.15;1.80;;;20.40;99.90;;;;;;4229688;28;20130;-81
2023/09/23 09:58:22;;;;;;;4.93;1.50;;;20.30;99.90;;;;;;4230990;28;20044;-81
2023/09/23 10:00:28;;;;;;;4.43;1.45;;;20.20;99.90;;;;;;4230043;28;20090;-81
2023/09/23 10:02:32;;;;;;;7.75;1.55;;;20.00;99.90;;;;;;4230478;28;20130;-81
2023/09/23 10:04:33;;;;;;;2.85;1.50;;;20.10;99.90;;;;;;4231172;28;20039;-80
2023/09/23 10:06:39;;;;;;;3.50;1.30;;;20.20;99.90;;;;;;4212388;28;20119;-81
2023/09/23 10:08:41;;;;;;;1.63;0.90;;;20.00;99.90;;;;;;4212717;28;20559;-80
2023/09/23 10:10:49;;;;;;;5.28;1.35;;;19.80;99.90;;;;;;4229905;28;20036;-81
2023/09/23 10:12:51;;;;;;;3.40;1.80;;;19.50;99.90;;;;;;4230861;28;20043;-81
2023/09/23 10:14:54;;;;;;;1.92;1.20;;;19.30;99.90;;;;;;4231174;28;20438;-81
2023/09/23 10:17:01;;;;;;;2.20;1.25;;;19.20;99.90;;;;;;4231020;28;20369;-81
2023/09/23 10:19:09;;;;;;;5.65;1.50;;;19.00;99.90;;;;;;4229403;28;20487;-81
2023/09/23 10:21:23;;;;;;;3.10;1.10;;;18.80;99.90;;;;;;4214040;28;20127;-81
2023/09/23 10:23:24;;;;;;;5.15;1.55;;;18.50;99.90;;;;;;4214244;28;20492;-81
2023/09/23 10:25:40;;;;;;;6.60;1.63;;;18.10;99.90;;;;;;4196371;28;20059;-80
2023/09/23 10:27:59;;;;;;;4.65;1.75;;;17.80;99.90;;;;;;4195975;28;20499;-80
2023/09/23 10:30:00;;;;;;;3.53;1.25;;;17.40;99.90;;;;;;4214377;28;20048;-80
2023/09/23 10:32:14;;;;;;;7.35;2.97;;;17.10;99.90;;;;;;4196231;28;20079;-80
2023/09/23 10:34:15;;;;;;;5.00;1.45;;;16.90;99.90;;;;;;4213550;28;20040;-80